Cosco Aden — VRKF9 — position and weather

sailwx.info

Track history (hours):
 
Tides and Currents Weather Stations Pressure Air Temp Water Temp Dewpoint Dewpoint Depression Visibility Wind Speed Wind Dir Waves Ship Positions

Cosco Aden

Last reported at 2014-Jul-23 10:07 UTC. Time now 2014-Jul-24 12:22 UTC.
Position N 29°18' E 122°28'.

Length 261 m; draft 11.1 m.

Type: Ship (hazmat cat A). MMSI: 477765900.

Date/timePositionNaut miles runAvg speedWind from/ knotsBaromVisibWave heightAir tempDewpointWater temp
2014-Jul-23 10:07N 29°18' E 122°28'711.8
2014-Jul-23 09:32N 29°25' E 122°28'1111.7
2014-Jul-23 08:33N 29°35' E 122°23'0 0.0
2014-Jul-23 06:24N 29°35' E 122°23'0 0.1
2014-Jul-23 05:30N 29°35' E 122°24'0 0.0
2014-Jul-23 04:30N 29°35' E 122°24'6 6.0
2014-Jul-23 03:33N 29°40' E 122°20'1312.9
2014-Jul-23 02:33N 29°51' E 122°12'8 7.4
2014-Jul-23 01:31N 29°53' E 122°03'0 0.0
2014-Jul-23 00:31N 29°53' E 122°03'0 0.0
2014-Jul-22 23:31N 29°53' E 122°03'0 0.0
2014-Jul-22 22:31N 29°53' E 122°03'0 0.0
2014-Jul-22 21:31N 29°53' E 122°03'0 0.0
2014-Jul-22 20:31N 29°53' E 122°03'0 0.0
2014-Jul-22 19:31N 29°53' E 122°03'0 0.0
2014-Jul-22 18:31N 29°53' E 122°03'0 0.1
2014-Jul-22 17:33N 29°53' E 122°03'0 0.0
2014-Jul-22 16:31N 29°53' E 122°03'0 0.0
2014-Jul-22 15:33N 29°53' E 122°03'2 1.7
2014-Jul-22 14:34N 29°55' E 122°05'9 9.0
2014-Jul-22 13:34N 29°50' E 122°13'1111.2
2014-Jul-22 12:33N 29°45' E 122°25'7 6.5
2014-Jul-22 11:31N 29°47' E 122°32'0 0.1
2014-Jul-22 10:31N 29°47' E 122°32'0 0.0
2014-Jul-22 09:25N 29°47' E 122°32'1 1.2
2014-Jul-22 08:33N 29°48' E 122°33'1514.3
2014-Jul-22 07:32N 29°57' E 122°46'1010.4
2014-Jul-22 06:33N 30°04' E 122°55'1111.4
2014-Jul-22 05:33N 30°14' E 123°00'1413.6
2014-Jul-22 04:33N 30°28' E 123°00'1413.6
2014-Jul-22 03:32N 30°42' E 123°01'1313.3
2014-Jul-22 02:32N 30°55' E 122°60'11414.0
2014-Jul-21 18:24N 32°49' E 122°56'4114.1
2014-Jul-21 15:31N 33°30' E 122°54'2813.7
2014-Jul-21 13:29N 33°57' E 122°47'16414.5
2014-Jul-21 02:13N 35°58' E 120°33'913.8
2014-Jul-21 01:33N 36°01' E 120°22'8 0.5
2014-Jul-20 10:12N 35°60' E 120°13'0 0.0
2014-Jul-20 08:30N 35°60' E 120°13'0 0.0
2014-Jul-20 07:24N 35°60' E 120°13'1 0.3
2014-Jul-20 02:30N 36°01' E 120°14'1111.4
2014-Jul-20 01:34N 36°00' E 120°27'1615.6
2014-Jul-20 00:33N 35°56' E 120°46'10 4.0
2014-Jul-19 22:08N 35°50' E 120°54'0 0.1
2014-Jul-19 21:26N 35°50' E 120°54'0 0.1
2014-Jul-19 20:32N 35°50' E 120°54'0 0.0
2014-Jul-19 19:32N 35°50' E 120°54'0 0.0
2014-Jul-19 18:32N 35°50' E 120°54'0 0.0
2014-Jul-19 17:33N 35°50' E 120°54'0 0.1
2014-Jul-19 16:08N 35°50' E 120°54'0 0.1
2014-Jul-19 15:26N 35°50' E 120°54'1 1.0
2014-Jul-19 14:33N 35°49' E 120°53'1413.4
2014-Jul-19 13:32N 35°57' E 120°39'1 1.3
2014-Jul-19 12:33N 35°58' E 120°41'1414.4
2014-Jul-19 11:33N 35°51' E 120°57'1 0.9
2014-Jul-19 10:23N 35°51' E 120°58'0 0.0
2014-Jul-19 09:29N 35°51' E 120°58'0 0.1
2014-Jul-19 08:29N 35°51' E 120°58'0 0.0
2014-Jul-19 07:29N 35°51' E 120°58'0 0.0
2014-Jul-19 06:29N 35°51' E 120°58'0 0.1
2014-Jul-19 05:29N 35°51' E 120°58'0 0.2
2014-Jul-19 04:29N 35°51' E 120°58'0 0.1
2014-Jul-19 03:11N 35°51' E 120°58'0 0.1
2014-Jul-19 02:11N 35°51' E 120°58'0 0.0
2014-Jul-19 01:23N 35°51' E 120°58'0 0.1
2014-Jul-19 00:23N 35°51' E 120°58'1011.5
2014-Jul-18 23:33N 36°00' E 120°60'8 7.8
2014-Jul-18 22:34N 36°05' E 121°08'8 8.2
2014-Jul-18 21:33N 36°09' E 121°17'8 8.1
2014-Jul-18 20:31N 36°12' E 121°26'8 8.6
2014-Jul-18 19:33N 36°15' E 121°36'18 8.9
2014-Jul-18 17:33N 36°24' E 121°55'17 8.6
2014-Jul-18 15:33N 36°34' E 122°12'9 8.3
2014-Jul-18 14:29N 36°39' E 122°21'9 9.9
2014-Jul-18 13:33N 36°45' E 122°31'1212.5
2014-Jul-18 12:33N 36°53' E 122°42'1212.2
2014-Jul-18 11:33N 37°05' E 122°46'1413.8
2014-Jul-18 10:33N 37°19' E 122°46'1413.9
2014-Jul-18 09:31N 37°33' E 122°42'1414.4
2014-Jul-18 08:33N 37°41' E 122°28'1413.9
2014-Jul-18 07:33N 37°50' E 122°14'1413.6
2014-Jul-18 06:33N 37°57' E 121°60'1313.2
2014-Jul-18 05:33N 38°06' E 121°47'1313.4
2014-Jul-18 04:33N 38°14' E 121°33'1414.1
2014-Jul-18 03:33N 38°22' E 121°18'1615.6
2014-Jul-18 02:30N 38°30' E 120°60'12314.9
2014-Jul-17 18:17N 38°49' E 118°24'2313.2
2014-Jul-17 16:33N 38°57' E 117°57'9 8.4
2014-Jul-17 15:32N 38°59' E 117°46'0 0.0
2014-Jul-17 14:29N 38°59' E 117°46'0 0.0
2014-Jul-17 13:32N 38°59' E 117°46'0 0.0
2014-Jul-17 12:32N 38°59' E 117°46'0 0.0
2014-Jul-17 11:29N 38°59' E 117°46'0 0.0
2014-Jul-17 10:32N 38°59' E 117°46'0 0.0
2014-Jul-17 09:32N 38°59' E 117°46'0 0.0
2014-Jul-17 08:32N 38°59' E 117°46'0 0.0
2014-Jul-17 07:32N 38°59' E 117°46'0 0.0
2014-Jul-17 06:32N 38°59' E 117°46'0 0.0
2014-Jul-17 05:29N 38°59' E 117°46'0 0.0
2014-Jul-17 04:32N 38°59' E 117°46'0 0.0
2014-Jul-17 03:32N 38°59' E 117°46'0 0.0
2014-Jul-17 02:32N 38°59' E 117°46'0 0.0
2014-Jul-17 01:32N 38°59' E 117°46'0 0.0
2014-Jul-17 00:32N 38°59' E 117°46'0 0.0
2014-Jul-16 23:32N 38°59' E 117°46'6 5.8
2014-Jul-16 22:34N 38°57' E 117°53'1010.1
2014-Jul-16 21:33N 38°56' E 118°06'6 2.9
2014-Jul-16 19:22N 38°53' E 118°13'0 0.0
2014-Jul-16 18:31N 38°53' E 118°13'0 0.0
2014-Jul-16 17:30N 38°53' E 118°13'4 4.7
2014-Jul-16 16:33N 38°52' E 118°19'3214.2
2014-Jul-16 14:19N 38°48' E 118°59'8015.2
2014-Jul-16 09:04N 38°39' E 120°41'2713.7
2014-Jul-16 07:05N 38°31' E 121°14'917.4
2014-Jul-16 06:33N 38°31' E 121°26'1515.5
2014-Jul-16 05:33N 38°36' E 121°45'1716.7
2014-Jul-16 04:33N 38°51' E 121°54'7 0.5
2014-Jul-15 14:32N 38°58' E 121°57'6 1.4
2014-Jul-15 10:09N 38°52' E 121°60'0 0.1
2014-Jul-15 09:23N 38°52' E 121°60'0 0.0
2014-Jul-15 08:33N 38°52' E 121°60'0 0.0
2014-Jul-15 07:33N 38°52' E 121°60'0 0.1
2014-Jul-15 06:33N 38°52' E 121°60'5 5.1
2014-Jul-15 05:33N 38°47' E 121°60'1313.5
2014-Jul-15 04:33N 38°35' E 122°08'1413.4
2014-Jul-15 03:31N 38°23' E 122°16'1514.3
2014-Jul-15 02:27N 38°09' E 122°25'3015.0
2014-Jul-15 00:30N 37°43' E 122°42'1615.2
2014-Jul-14 23:28N 37°29' E 122°50'1415.0
2014-Jul-14 22:33N 37°15' E 122°53'1515.0
2014-Jul-14 21:33N 37°00' E 122°53'1414.5
2014-Jul-14 20:33N 36°46' E 122°53'2814.1
2014-Jul-14 18:34N 36°18' E 122°54'1414.0
2014-Jul-14 17:33N 36°04' E 122°54'1414.0
2014-Jul-14 16:33N 35°50' E 122°55'1414.2
2014-Jul-14 15:33N 35°35' E 122°55'1414.0
2014-Jul-14 14:33N 35°21' E 122°55'25514.1
2014-Jul-13 20:30N 31°06' E 122°47'1617.0
2014-Jul-13 19:32N 31°05' E 122°28'1313.0
2014-Jul-13 18:31N 31°09' E 122°13'2611.7
2014-Jul-13 16:19N 31°18' E 121°45'5 2.7
2014-Jul-13 14:30N 31°20' E 121°40'0 0.0
2014-Jul-13 12:17N 31°20' E 121°40'0 0.0
2014-Jul-13 11:06N 31°20' E 121°40'  
Track history (hours):
 
Tides and Currents Weather Stations Pressure Air Temp Water Temp Dewpoint Dewpoint Depression Visibility Wind Speed Wind Dir Waves Ship Positions

Cosco Aden

Last reported at 2014-Jul-23 10:07 UTC. Time now 2014-Jul-24 12:22 UTC.
Position N 29°18' E 122°28'.

Length 261 m; draft 11.1 m.

Type: Ship (hazmat cat A). MMSI: 477765900.

Date/timePositionNaut miles runAvg speedWind from/ knotsBaromVisibWave heightAir tempDewpointWater temp
2014-Jul-23 10:07N 29°18' E 122°28'711.8
2014-Jul-23 09:32N 29°25' E 122°28'1111.7
2014-Jul-23 08:33N 29°35' E 122°23'0 0.0
2014-Jul-23 06:24N 29°35' E 122°23'0 0.1
2014-Jul-23 05:30N 29°35' E 122°24'0 0.0
2014-Jul-23 04:30N 29°35' E 122°24'6 6.0
2014-Jul-23 03:33N 29°40' E 122°20'1312.9
2014-Jul-23 02:33N 29°51' E 122°12'8 7.4
2014-Jul-23 01:31N 29°53' E 122°03'0 0.0
2014-Jul-23 00:31N 29°53' E 122°03'0 0.0
2014-Jul-22 23:31N 29°53' E 122°03'0 0.0
2014-Jul-22 22:31N 29°53' E 122°03'0 0.0
2014-Jul-22 21:31N 29°53' E 122°03'0 0.0
2014-Jul-22 20:31N 29°53' E 122°03'0 0.0
2014-Jul-22 19:31N 29°53' E 122°03'0 0.0
2014-Jul-22 18:31N 29°53' E 122°03'0 0.1
2014-Jul-22 17:33N 29°53' E 122°03'0 0.0
2014-Jul-22 16:31N 29°53' E 122°03'0 0.0
2014-Jul-22 15:33N 29°53' E 122°03'2 1.7
2014-Jul-22 14:34N 29°55' E 122°05'9 9.0
2014-Jul-22 13:34N 29°50' E 122°13'1111.2
2014-Jul-22 12:33N 29°45' E 122°25'7 6.5
2014-Jul-22 11:31N 29°47' E 122°32'0 0.1
2014-Jul-22 10:31N 29°47' E 122°32'0 0.0
2014-Jul-22 09:25N 29°47' E 122°32'1 1.2
2014-Jul-22 08:33N 29°48' E 122°33'1514.3
2014-Jul-22 07:32N 29°57' E 122°46'1010.4
2014-Jul-22 06:33N 30°04' E 122°55'1111.4
2014-Jul-22 05:33N 30°14' E 123°00'1413.6
2014-Jul-22 04:33N 30°28' E 123°00'1413.6
2014-Jul-22 03:32N 30°42' E 123°01'1313.3
2014-Jul-22 02:32N 30°55' E 122°60'11414.0
2014-Jul-21 18:24N 32°49' E 122°56'4114.1
2014-Jul-21 15:31N 33°30' E 122°54'2813.7
2014-Jul-21 13:29N 33°57' E 122°47'16414.5
2014-Jul-21 02:13N 35°58' E 120°33'913.8
2014-Jul-21 01:33N 36°01' E 120°22'8 0.5
2014-Jul-20 10:12N 35°60' E 120°13'0 0.0
2014-Jul-20 08:30N 35°60' E 120°13'0 0.0
2014-Jul-20 07:24N 35°60' E 120°13'1 0.3
2014-Jul-20 02:30N 36°01' E 120°14'1111.4
2014-Jul-20 01:34N 36°00' E 120°27'1615.6
2014-Jul-20 00:33N 35°56' E 120°46'10 4.0
2014-Jul-19 22:08N 35°50' E 120°54'0 0.1
2014-Jul-19 21:26N 35°50' E 120°54'0 0.1
2014-Jul-19 20:32N 35°50' E 120°54'0 0.0
2014-Jul-19 19:32N 35°50' E 120°54'0 0.0
2014-Jul-19 18:32N 35°50' E 120°54'0 0.0
2014-Jul-19 17:33N 35°50' E 120°54'0 0.1
2014-Jul-19 16:08N 35°50' E 120°54'0 0.1
2014-Jul-19 15:26N 35°50' E 120°54'1 1.0
2014-Jul-19 14:33N 35°49' E 120°53'1413.4
2014-Jul-19 13:32N 35°57' E 120°39'1 1.3
2014-Jul-19 12:33N 35°58' E 120°41'1414.4
2014-Jul-19 11:33N 35°51' E 120°57'1 0.9
2014-Jul-19 10:23N 35°51' E 120°58'0 0.0
2014-Jul-19 09:29N 35°51' E 120°58'0 0.1
2014-Jul-19 08:29N 35°51' E 120°58'0 0.0
2014-Jul-19 07:29N 35°51' E 120°58'0 0.0
2014-Jul-19 06:29N 35°51' E 120°58'0 0.1
2014-Jul-19 05:29N 35°51' E 120°58'0 0.2
2014-Jul-19 04:29N 35°51' E 120°58'0 0.1
2014-Jul-19 03:11N 35°51' E 120°58'0 0.1
2014-Jul-19 02:11N 35°51' E 120°58'0 0.0
2014-Jul-19 01:23N 35°51' E 120°58'0 0.1
2014-Jul-19 00:23N 35°51' E 120°58'1011.5
2014-Jul-18 23:33N 36°00' E 120°60'8 7.8
2014-Jul-18 22:34N 36°05' E 121°08'8 8.2
2014-Jul-18 21:33N 36°09' E 121°17'8 8.1
2014-Jul-18 20:31N 36°12' E 121°26'8 8.6
2014-Jul-18 19:33N 36°15' E 121°36'18 8.9
2014-Jul-18 17:33N 36°24' E 121°55'17 8.6
2014-Jul-18 15:33N 36°34' E 122°12'9 8.3
2014-Jul-18 14:29N 36°39' E 122°21'9 9.9
2014-Jul-18 13:33N 36°45' E 122°31'1212.5
2014-Jul-18 12:33N 36°53' E 122°42'1212.2
2014-Jul-18 11:33N 37°05' E 122°46'1413.8
2014-Jul-18 10:33N 37°19' E 122°46'1413.9
2014-Jul-18 09:31N 37°33' E 122°42'1414.4
2014-Jul-18 08:33N 37°41' E 122°28'1413.9
2014-Jul-18 07:33N 37°50' E 122°14'1413.6
2014-Jul-18 06:33N 37°57' E 121°60'1313.2
2014-Jul-18 05:33N 38°06' E 121°47'1313.4
2014-Jul-18 04:33N 38°14' E 121°33'1414.1
2014-Jul-18 03:33N 38°22' E 121°18'1615.6
2014-Jul-18 02:30N 38°30' E 120°60'12314.9
2014-Jul-17 18:17N 38°49' E 118°24'2313.2
2014-Jul-17 16:33N 38°57' E 117°57'9 8.4
2014-Jul-17 15:32N 38°59' E 117°46'0 0.0
2014-Jul-17 14:29N 38°59' E 117°46'0 0.0
2014-Jul-17 13:32N 38°59' E 117°46'0 0.0
2014-Jul-17 12:32N 38°59' E 117°46'0 0.0
2014-Jul-17 11:29N 38°59' E 117°46'0 0.0
2014-Jul-17 10:32N 38°59' E 117°46'0 0.0
2014-Jul-17 09:32N 38°59' E 117°46'0 0.0
2014-Jul-17 08:32N 38°59' E 117°46'0 0.0
2014-Jul-17 07:32N 38°59' E 117°46'0 0.0
2014-Jul-17 06:32N 38°59' E 117°46'0 0.0
2014-Jul-17 05:29N 38°59' E 117°46'0 0.0
2014-Jul-17 04:32N 38°59' E 117°46'0 0.0
2014-Jul-17 03:32N 38°59' E 117°46'0 0.0
2014-Jul-17 02:32N 38°59' E 117°46'0 0.0
2014-Jul-17 01:32N 38°59' E 117°46'0 0.0
2014-Jul-17 00:32N 38°59' E 117°46'0 0.0
2014-Jul-16 23:32N 38°59' E 117°46'6 5.8
2014-Jul-16 22:34N 38°57' E 117°53'1010.1
2014-Jul-16 21:33N 38°56' E 118°06'6 2.9
2014-Jul-16 19:22N 38°53' E 118°13'0 0.0
2014-Jul-16 18:31N 38°53' E 118°13'0 0.0
2014-Jul-16 17:30N 38°53' E 118°13'4 4.7
2014-Jul-16 16:33N 38°52' E 118°19'3214.2
2014-Jul-16 14:19N 38°48' E 118°59'8015.2
2014-Jul-16 09:04N 38°39' E 120°41'2713.7
2014-Jul-16 07:05N 38°31' E 121°14'917.4
2014-Jul-16 06:33N 38°31' E 121°26'1515.5
2014-Jul-16 05:33N 38°36' E 121°45'1716.7
2014-Jul-16 04:33N 38°51' E 121°54'7 0.5
2014-Jul-15 14:32N 38°58' E 121°57'6 1.4
2014-Jul-15 10:09N 38°52' E 121°60'0 0.1
2014-Jul-15 09:23N 38°52' E 121°60'0 0.0
2014-Jul-15 08:33N 38°52' E 121°60'0 0.0
2014-Jul-15 07:33N 38°52' E 121°60'0 0.1
2014-Jul-15 06:33N 38°52' E 121°60'5 5.1
2014-Jul-15 05:33N 38°47' E 121°60'1313.5
2014-Jul-15 04:33N 38°35' E 122°08'1413.4
2014-Jul-15 03:31N 38°23' E 122°16'1514.3
2014-Jul-15 02:27N 38°09' E 122°25'3015.0
2014-Jul-15 00:30N 37°43' E 122°42'1615.2
2014-Jul-14 23:28N 37°29' E 122°50'1415.0
2014-Jul-14 22:33N 37°15' E 122°53'1515.0
2014-Jul-14 21:33N 37°00' E 122°53'1414.5
2014-Jul-14 20:33N 36°46' E 122°53'2814.1
2014-Jul-14 18:34N 36°18' E 122°54'1414.0
2014-Jul-14 17:33N 36°04' E 122°54'1414.0
2014-Jul-14 16:33N 35°50' E 122°55'1414.2
2014-Jul-14 15:33N 35°35' E 122°55'1414.0
2014-Jul-14 14:33N 35°21' E 122°55'25514.1
2014-Jul-13 20:30N 31°06' E 122°47'1617.0
2014-Jul-13 19:32N 31°05' E 122°28'1313.0
2014-Jul-13 18:31N 31°09' E 122°13'2611.7
2014-Jul-13 16:19N 31°18' E 121°45'5 2.7
2014-Jul-13 14:30N 31°20' E 121°40'0 0.0
2014-Jul-13 12:17N 31°20' E 121°40'0 0.0
2014-Jul-13 11:06N 31°20' E 121°40'  

Dump ship's entire track history